Time;durP1;ratioP1;P1;durP2;ratioP2;P2;SDS_P1;SDS_P2;PMS_P1;PMS_P2;Temp;Humidity;BMP_temperature;BMP_pressure;BME280_temperature;BME280_humidity;BME280_pressure;Samples;Min_cycle;Max_cycle;Signal;HPM_P1;HPM_P2
2023/01/12 00:02:13;;;;;;;7.40;6.80;;;;;;;3.82;69.88;95087.28;5079129;28;20261;-73
2023/01/12 00:04:44;;;;;;;7.32;6.72;;;;;;;3.82;70.22;95087.28;5078999;28;20552;-73
2023/01/12 00:07:14;;;;;;;6.40;5.90;;;;;;;3.80;69.59;95087.56;5096741;28;20243;-72
2023/01/12 00:09:44;;;;;;;6.45;5.90;;;;;;;3.82;69.64;95081.81;5078888;28;20620;-73
2023/01/12 00:12:12;;;;;;;5.60;5.20;;;;;;;3.81;70.01;95086.47;5095041;28;20208;-74
2023/01/12 00:14:40;;;;;;;5.47;5.07;;;;;;;3.84;69.81;95088.56;5096803;28;20199;-74
2023/01/12 00:17:10;;;;;;;5.53;5.13;;;;;;;3.80;69.47;95087.56;5079094;28;20601;-73
2023/01/12 00:19:38;;;;;;;5.63;5.22;;;;;;;3.80;70.19;95089.50;5096234;28;20284;-74
2023/01/12 00:22:16;;;;;;;5.38;4.97;;;;;;;3.81;70.08;95089.19;5079023;28;20235;-74
2023/01/12 00:24:48;;;;;;;5.65;5.25;;;;;;;3.87;69.66;95087.13;5078537;28;20261;-75
2023/01/12 00:27:17;;;;;;;5.35;4.95;;;;;;;3.88;69.94;95094.19;5078844;28;20228;-75
2023/01/12 00:29:45;;;;;;;4.85;4.55;;;;;;;3.88;69.61;95090.66;5078913;28;20196;-74
2023/01/12 00:32:14;;;;;;;4.90;4.60;;;;;;;3.86;69.91;95096.44;5078704;28;20207;-74
2023/01/12 00:34:42;;;;;;;5.63;5.22;;;;;;;3.88;70.10;95101.56;5078411;28;20196;-75
2023/01/12 00:37:11;;;;;;;5.50;5.10;;;;;;;3.86;69.62;95099.16;5078966;28;20200;-75
2023/01/12 00:39:39;;;;;;;5.45;5.05;;;;;;;3.89;69.60;95116.84;5078630;28;20205;-74
2023/01/12 00:47:42;;;;;;;4.90;4.60;;;;;;;3.90;69.69;95096.63;5095919;28;20209;-74
2023/01/12 00:50:10;;;;;;;5.47;5.07;;;;;;;3.91;69.93;95098.25;5096027;28;20204;-75
2023/01/12 00:52:38;;;;;;;4.95;4.65;;;;;;;3.90;69.68;95093.91;5095751;28;20193;-75
2023/01/12 00:55:08;;;;;;;4.43;4.13;;;;;;;3.89;69.52;95103.22;5095774;28;20300;-74
2023/01/12 00:57:38;;;;;;;4.68;4.38;;;;;;;3.86;69.69;95101.91;5077882;28;20219;-74
2023/01/12 01:00:07;;;;;;;4.82;4.53;;;;;;;3.86;69.79;95097.25;5078107;28;20200;-75
2023/01/12 01:02:34;;;;;;;4.95;4.65;;;;;;;3.85;69.77;95097.56;5095771;28;20204;-75
2023/01/12 01:05:04;;;;;;;4.82;4.53;;;;;;;3.84;69.83;95088.56;5078210;28;20211;-74
2023/01/12 01:07:33;;;;;;;4.72;4.43;;;;;;;3.83;69.51;95097.88;5095806;28;20209;-75
2023/01/12 01:10:01;;;;;;;5.03;4.72;;;;;;;3.80;70.06;95103.94;5077905;28;20204;-74
2023/01/12 01:12:29;;;;;;;5.03;4.65;;;;;;;3.76;70.34;95110.31;5095815;28;20189;-75
2023/01/12 01:14:58;;;;;;;5.03;4.72;;;;;;;3.75;70.33;95097.81;5095620;28;20199;-74
2023/01/12 01:17:28;;;;;;;5.45;5.05;;;;;;;3.70;70.10;95095.97;5078088;28;20192;-74
2023/01/12 01:19:58;;;;;;;5.32;4.93;;;;;;;3.76;70.53;95097.47;5095634;28;20192;-74
2023/01/12 01:22:26;;;;;;;5.35;4.95;;;;;;;3.76;70.08;95093.94;5094786;28;20284;-74
2023/01/12 01:24:54;;;;;;;4.90;4.60;;;;;;;3.76;70.03;95091.22;5077892;28;20245;-74
2023/01/12 01:27:22;;;;;;;5.28;4.88;;;;;;;3.73;70.14;95100.03;5095385;28;20212;-74
2023/01/12 01:29:50;;;;;;;5.00;4.70;;;;;;;3.68;70.02;95103.69;5077966;28;20278;-74
2023/01/12 01:32:19;;;;;;;5.38;4.97;;;;;;;3.68;70.38;95102.88;5077725;28;20200;-74
2023/01/12 01:34:47;;;;;;;5.03;4.72;;;;;;;3.68;70.38;95095.50;5077415;28;20222;-74
2023/01/12 01:37:14;;;;;;;5.72;5.32;;;;;;;3.70;70.45;95101.44;5077680;28;20204;-74
2023/01/12 01:39:42;;;;;;;5.50;5.10;;;;;;;3.70;69.87;95111.53;5077707;28;20204;-74
2023/01/12 01:42:26;;;;;;;5.85;5.45;;;;;;;3.71;70.51;95100.34;5077753;28;20211;-74
2023/01/12 01:44:55;;;;;;;5.63;5.22;;;;;;;3.72;70.12;95109.31;5078038;28;20204;-74
2023/01/12 01:47:35;;;;;;;5.80;5.40;;;;;;;3.66;70.30;95116.00;5077621;28;20231;-74
2023/01/12 01:50:06;;;;;;;5.63;5.22;;;;;;;3.64;70.49;95112.78;5077459;28;20211;-74
2023/01/12 01:52:37;;;;;;;6.05;5.65;;;;;;;3.66;70.25;95119.53;5077292;28;20215;-74
2023/01/12 01:55:07;;;;;;;5.85;5.45;;;;;;;3.65;70.72;95117.94;5077649;28;20235;-74
2023/01/12 01:57:39;;;;;;;6.00;5.60;;;;;;;3.65;70.48;95120.66;5077168;28;20208;-74
2023/01/12 02:00:09;;;;;;;6.03;5.63;;;;;;;3.61;70.71;95114.22;5077308;28;20204;-73
2023/01/12 02:02:39;;;;;;;6.25;5.75;;;;;;;3.62;71.32;95118.53;5077046;28;20204;-74
2023/01/12 02:05:08;;;;;;;6.05;5.55;;;;;;;3.64;70.27;95120.97;5077612;28;20200;-74
2023/01/12 02:07:36;;;;;;;6.30;5.90;;;;;;;3.65;70.60;95115.19;5094932;28;20216;-74
2023/01/12 02:10:04;;;;;;;6.05;5.65;;;;;;;3.66;70.65;95114.09;5077424;28;20196;-74
2023/01/12 02:18:15;;;;;;;5.68;5.28;;;;;;;3.65;70.51;95117.94;5094740;28;20264;-74
2023/01/12 02:20:58;;;;;;;5.90;5.50;;;;;;;3.66;70.54;95114.09;5094431;28;20192;-74
2023/01/12 02:23:57;;;;;;;6.13;5.72;;;;;;;3.65;70.57;95104.28;5094625;28;20205;-74
2023/01/12 02:26:43;;;;;;;5.57;5.25;;;;;;;3.66;70.26;95110.56;5094911;28;20211;-74
2023/01/12 02:29:55;;;;;;;6.22;5.82;;;;;;;3.59;70.75;95113.69;5077460;28;20216;-74
2023/01/12 02:32:30;;;;;;;5.70;5.30;;;;;;;3.59;70.99;95105.50;4996779;28;20215;-74
2023/01/12 02:35:05;;;;;;;5.97;5.57;;;;;;;3.60;71.21;95110.69;5014635;28;20219;-74
2023/01/12 02:37:36;;;;;;;6.00;5.60;;;;;;;3.54;70.62;95106.44;5016973;28;20201;-74
2023/01/12 02:40:07;;;;;;;5.60;5.20;;;;;;;3.53;71.15;95109.50;5000384;28;20199;-74
2023/01/12 02:42:46;;;;;;;6.20;5.80;;;;;;;3.48;70.87;95113.13;5000385;28;20218;-74
2023/01/12 02:45:23;;;;;;;6.60;6.10;;;;;;;3.49;71.23;95112.03;5000547;28;20199;-73
2023/01/12 02:47:56;;;;;;;5.70;5.30;;;;;;;3.50;71.34;95110.09;5016558;28;20293;-74
2023/01/12 02:50:30;;;;;;;5.80;5.40;;;;;;;3.54;71.46;95116.56;5016562;28;20269;-74
2023/01/12 02:53:03;;;;;;;5.88;5.47;;;;;;;3.53;71.43;95113.03;5000937;28;20614;-73
2023/01/12 02:55:34;;;;;;;5.80;5.40;;;;;;;3.56;71.18;95112.41;5000239;28;20294;-75
2023/01/12 02:58:04;;;;;;;5.95;5.55;;;;;;;3.59;71.13;95109.06;5016416;28;20298;-74
2023/01/12 03:00:32;;;;;;;5.40;5.00;;;;;;;3.60;71.06;95113.41;5016353;28;20652;-74
2023/01/12 03:03:01;;;;;;;5.20;4.80;;;;;;;3.58;70.82;95107.44;5000507;28;20536;-75
2023/01/12 03:05:30;;;;;;;4.55;4.25;;;;;;;3.58;71.26;95101.19;4999144;28;20203;-75
2023/01/12 03:07:59;;;;;;;4.68;4.38;;;;;;;3.59;71.03;95102.78;5034393;28;20243;-74
2023/01/12 03:10:40;;;;;;;4.60;4.30;;;;;;;3.56;70.92;95112.41;5080194;28;20211;-74
2023/01/12 03:13:14;;;;;;;4.47;4.18;;;;;;;3.52;70.74;95105.13;5080361;28;20207;-74
2023/01/12 03:15:46;;;;;;;5.03;4.65;;;;;;;3.50;71.27;95113.63;5080123;28;20549;-75
2023/01/12 03:18:17;;;;;;;5.22;4.82;;;;;;;3.50;71.37;95096.47;5097826;28;20192;-74
2023/01/12 03:20:48;;;;;;;5.13;4.72;;;;;;;3.53;71.17;95099.38;5097752;28;20203;-74
2023/01/12 03:23:19;;;;;;;5.00;4.70;;;;;;;3.55;71.72;95104.53;5080335;28;20250;-74
2023/01/12 03:25:47;;;;;;;4.90;4.60;;;;;;;3.52;71.08;95105.97;5097552;28;20219;-75
2023/01/12 03:28:19;;;;;;;5.20;4.80;;;;;;;3.51;71.50;95096.16;5097658;28;20231;-75
2023/01/12 03:30:52;;;;;;;5.35;4.95;;;;;;;3.56;71.94;95101.50;5079874;28;20197;-74
2023/01/12 03:33:22;;;;;;;4.95;4.57;;;;;;;3.53;71.75;95102.13;5097546;28;20200;-74
2023/01/12 03:35:53;;;;;;;4.90;4.55;;;;;;;3.55;71.76;95102.59;5079959;28;20202;-74
2023/01/12 03:38:25;;;;;;;4.70;4.30;;;;;;;3.57;71.53;95107.75;5079478;28;20200;-74
2023/01/12 03:41:00;;;;;;;4.70;4.40;;;;;;;3.56;71.66;95095.25;5079872;28;20600;-74
2023/01/12 03:43:31;;;;;;;5.40;5.00;;;;;;;3.60;71.78;95096.25;5079678;28;20199;-74
2023/01/12 03:46:05;;;;;;;5.25;4.95;;;;;;;3.64;71.87;95096.44;5079104;28;20587;-74
2023/01/12 03:48:38;;;;;;;4.78;4.47;;;;;;;3.61;71.42;95097.84;5079427;28;20212;-75
2023/01/12 03:51:11;;;;;;;4.97;4.68;;;;;;;3.60;71.76;95093.50;5079240;28;20271;-74
2023/01/12 03:53:40;;;;;;;5.20;4.80;;;;;;;3.62;71.85;95096.72;5079474;28;20212;-74
2023/01/12 03:56:11;;;;;;;5.30;4.90;;;;;;;3.59;71.84;95087.25;5079130;28;20303;-74
2023/01/12 03:58:38;;;;;;;5.50;5.10;;;;;;;3.56;71.82;95089.78;5097065;28;20200;-74
2023/01/12 04:01:06;;;;;;;5.45;5.00;;;;;;;3.55;72.46;95088.16;5097139;28;20185;-74
2023/01/12 04:03:35;;;;;;;5.68;5.22;;;;;;;3.53;72.60;95087.69;5079467;28;20204;-74
2023/01/12 04:06:04;;;;;;;5.35;4.95;;;;;;;3.55;72.70;95086.22;5079418;28;20196;-74
2023/01/12 04:08:31;;;;;;;5.30;4.90;;;;;;;3.56;72.35;95078.88;5096466;28;20660;-74
2023/01/12 04:12:08;;;;;;;4.80;4.50;;;;;;;3.61;72.25;95076.03;5079740;28;20200;-75
2023/01/12 04:13:49;;;;;;;5.53;5.10;;;;;;;3.61;72.71;95079.56;5096464;28;20219;-74
2023/01/12 04:16:16;;;;;;;5.93;5.50;;;;;;;3.61;72.06;95076.03;5096653;28;20204;-74
2023/01/12 04:18:45;;;;;;;5.80;5.40;;;;;;;3.59;72.67;95079.06;5078945;28;20267;-74
2023/01/12 04:23:56;;;;;;;5.78;5.38;;;;;;;3.66;72.45;95084.06;5078157;28;20201;-74
2023/01/12 04:26:23;;;;;;;5.70;5.20;;;;;;;3.67;72.50;95085.72;5096341;28;20193;-74
2023/01/12 04:28:52;;;;;;;5.72;5.28;;;;;;;3.69;72.18;95085.38;5078394;28;20528;-74
2023/01/12 04:31:22;;;;;;;5.70;5.30;;;;;;;3.68;71.76;95086.50;5096506;28;20608;-74
2023/01/12 04:33:51;;;;;;;6.00;5.50;;;;;;;3.71;72.24;95089.44;5078410;28;20620;-74
2023/01/12 04:36:18;;;;;;;6.18;5.60;;;;;;;3.73;72.18;95086.38;5096351;28;20258;-74
2023/01/12 04:38:45;;;;;;;5.68;5.22;;;;;;;3.70;71.82;95093.25;5078653;28;20216;-73
2023/01/12 04:41:14;;;;;;;5.63;5.22;;;;;;;3.67;72.03;95095.78;5078807;28;20204;-74
2023/01/12 04:43:41;;;;;;;5.65;5.15;;;;;;;3.67;72.22;95096.63;5078129;28;20204;-74
2023/01/12 04:46:10;;;;;;;5.20;4.80;;;;;;;3.66;71.95;95100.44;5095898;28;20490;-74
2023/01/12 04:48:42;;;;;;;5.05;4.65;;;;;;;3.70;72.37;95103.38;5095959;28;20220;-74
2023/01/12 04:51:10;;;;;;;5.53;5.13;;;;;;;3.69;72.51;95099.03;5078461;28;20215;-74
2023/01/12 04:53:38;;;;;;;5.30;4.90;;;;;;;3.72;72.15;95099.22;5096052;28;20192;-74
2023/01/12 04:56:08;;;;;;;5.22;4.82;;;;;;;3.69;72.42;95099.84;5078177;28;20235;-74
2023/01/12 04:58:36;;;;;;;5.38;4.97;;;;;;;3.69;72.25;95105.28;5095048;28;20250;-74
2023/01/12 05:01:09;;;;;;;5.70;5.25;;;;;;;3.69;72.36;95104.50;5078062;28;20197;-73
2023/01/12 05:03:38;;;;;;;4.95;4.55;;;;;;;3.68;72.00;95111.88;5077964;28;20203;-75
2023/01/12 05:06:06;;;;;;;5.68;5.28;;;;;;;3.67;72.26;95118.44;5096699;28;20188;-75
2023/01/12 05:11:27;;;;;;;5.70;5.30;;;;;;;3.68;72.26;95117.31;5078247;28;20188;-75
2023/01/12 05:13:55;;;;;;;5.70;5.30;;;;;;;3.70;72.39;95123.25;5095720;28;20189;-74
2023/01/12 05:16:22;;;;;;;6.10;5.60;;;;;;;3.69;72.57;95124.38;5095311;28;20224;-74
2023/01/12 05:18:52;;;;;;;6.50;6.00;;;;;;;3.68;72.77;95125.50;5078375;28;20207;-74
2023/01/12 05:21:20;;;;;;;6.53;6.00;;;;;;;3.68;72.95;95121.97;5078091;28;20251;-74
2023/01/12 05:23:51;;;;;;;5.82;5.38;;;;;;;3.70;72.54;95122.47;5077664;28;20204;-74
2023/01/12 05:26:18;;;;;;;5.80;5.40;;;;;;;3.70;72.34;95127.91;5077637;28;20200;-74
2023/01/12 05:28:47;;;;;;;5.80;5.40;;;;;;;3.71;72.31;95132.28;5077278;28;20224;-74
2023/01/12 05:31:14;;;;;;;6.68;6.10;;;;;;;3.73;72.54;95135.47;5077771;28;20621;-74
2023/01/12 05:33:42;;;;;;;9.23;8.32;;;;;;;3.71;72.49;95137.72;5078000;28;20204;-74
2023/01/12 05:36:12;;;;;;;7.20;6.60;;;;;;;3.68;72.41;95146.53;5078000;28;20203;-74
2023/01/12 05:38:41;;;;;;;6.20;5.70;;;;;;;3.68;72.49;95149.25;5095393;28;20189;-74
2023/01/12 05:41:13;;;;;;;6.13;5.65;;;;;;;3.68;72.68;95149.25;5077476;28;20196;-74
2023/01/12 05:43:50;;;;;;;6.30;5.80;;;;;;;3.68;72.70;95152.78;5077262;28;20200;-74
2023/01/12 05:46:17;;;;;;;5.88;5.43;;;;;;;3.71;72.59;95156.81;5095297;28;20188;-74
2023/01/12 05:48:45;;;;;;;5.72;5.25;;;;;;;3.75;72.76;95166.00;5077136;28;20237;-74
2023/01/12 05:51:14;;;;;;;5.70;5.30;;;;;;;3.78;72.96;95171.66;5077760;28;20200;-74
2023/01/12 05:53:42;;;;;;;6.30;5.80;;;;;;;3.77;72.39;95172.75;5077316;28;20200;-73
2023/01/12 05:56:16;;;;;;;6.22;5.72;;;;;;;3.79;72.64;95169.72;5077248;28;20233;-73
2023/01/12 05:58:49;;;;;;;6.18;5.68;;;;;;;3.80;72.92;95174.88;5077683;28;20208;-73
2023/01/12 06:01:16;;;;;;;6.70;6.10;;;;;;;3.81;72.58;95171.03;5077659;28;20196;-73
2023/01/12 06:03:44;;;;;;;6.82;6.32;;;;;;;3.79;72.55;95169.72;5077389;28;20215;-73
2023/01/12 06:06:12;;;;;;;6.53;5.93;;;;;;;3.80;72.52;95180.31;5077426;28;20299;-73
2023/01/12 06:08:40;;;;;;;6.28;5.80;;;;;;;3.80;72.51;95177.59;5078423;28;20265;-73
2023/01/12 06:13:55;;;;;;;5.93;5.40;;;;;;;3.82;72.25;95180.84;5098986;28;20659;-73
2023/01/12 06:13:57;;;;;;;5.97;5.57;;;;;;;3.81;72.62;95176.50;5099015;28;20185;-73
2023/01/12 06:16:27;;;;;;;5.60;5.20;;;;;;;3.78;72.46;95176.31;5098745;28;20250;-73
2023/01/12 06:18:55;;;;;;;5.72;5.25;;;;;;;3.76;72.64;95171.16;5098804;28;20220;-73
2023/01/12 06:21:23;;;;;;;4.93;4.53;;;;;;;3.79;72.67;95176.00;5098887;28;20193;-74
2023/01/12 06:23:49;;;;;;;5.25;4.85;;;;;;;3.77;72.76;95170.03;5081552;28;20533;-73
2023/01/12 06:26:16;;;;;;;5.25;4.85;;;;;;;3.77;72.99;95172.75;5099149;28;20201;-73
2023/01/12 06:28:44;;;;;;;5.32;4.93;;;;;;;3.76;72.64;95173.88;5098479;28;20223;-73
2023/01/12 06:31:14;;;;;;;7.90;6.35;;;;;;;3.79;73.02;95167.00;5098862;28;20185;-74
2023/01/12 06:33:42;;;;;;;7.50;6.65;;;;;;;3.79;73.49;95167.81;5098948;28;20189;-73
2023/01/12 06:36:09;;;;;;;7.13;6.00;;;;;;;3.75;72.91;95174.19;5080663;28;20208;-74
2023/01/12 06:38:37;;;;;;;6.13;5.57;;;;;;;3.70;73.17;95175.09;5080573;28;20211;-73
2023/01/12 06:41:05;;;;;;;6.75;6.10;;;;;;;3.74;73.02;95175.28;5081175;28;20215;-73
2023/01/12 06:43:32;;;;;;;6.82;6.18;;;;;;;3.74;72.88;95178.00;5080705;28;20219;-73
2023/01/12 06:46:00;;;;;;;8.52;7.13;;;;;;;3.68;72.99;95171.88;5081043;28;20204;-74
2023/01/12 06:48:29;;;;;;;7.85;7.15;;;;;;;3.70;73.60;95177.81;5080123;28;20212;-74
2023/01/12 06:51:01;;;;;;;7.15;6.40;;;;;;;3.73;73.30;95176.41;5080862;28;20201;-73
2023/01/12 06:53:29;;;;;;;7.05;6.28;;;;;;;3.75;73.44;95183.19;5080372;28;20250;-73
2023/01/12 06:56:00;;;;;;;6.72;6.13;;;;;;;3.70;73.41;95185.19;5080387;28;20228;-73
2023/01/12 06:58:28;;;;;;;6.60;6.10;;;;;;;3.72;73.82;95189.25;5072399;28;20585;-74
2023/01/12 07:01:01;;;;;;;6.18;5.68;;;;;;;3.77;73.67;95193.78;5079994;28;20621;-73
2023/01/12 07:03:29;;;;;;;7.57;6.88;;;;;;;3.75;73.37;95193.28;5080434;28;20639;-73
2023/01/12 07:05:58;;;;;;;9.25;8.45;;;;;;;3.73;73.59;95196.31;5080562;28;20200;-73
2023/01/12 07:08:26;;;;;;;9.10;8.23;;;;;;;3.74;73.77;95191.66;5080397;28;20204;-73
2023/01/12 07:10:54;;;;;;;8.07;7.38;;;;;;;3.77;73.58;95199.22;5080799;28;20663;-73
2023/01/12 07:13:25;;;;;;;7.22;6.63;;;;;;;3.82;73.62;95208.13;5080495;28;20200;-73
2023/01/12 07:15:53;;;;;;;7.53;6.93;;;;;;;3.77;73.36;95197.31;5080179;28;20189;-73
2023/01/12 07:18:20;;;;;;;7.95;7.25;;;;;;;3.79;73.85;95197.00;5079718;28;20200;-73
2023/01/12 07:20:49;;;;;;;8.27;7.57;;;;;;;3.81;73.88;95200.22;5079145;28;20200;-73
2023/01/12 07:23:17;;;;;;;8.18;7.47;;;;;;;3.74;73.73;95189.75;5080410;28;20208;-73
2023/01/12 07:25:44;;;;;;;8.05;7.35;;;;;;;3.73;74.48;95185.41;5080391;28;20193;-73
2023/01/12 07:28:12;;;;;;;7.25;6.65;;;;;;;3.80;74.43;95190.44;5080222;28;20197;-73
2023/01/12 07:30:40;;;;;;;7.00;6.40;;;;;;;3.85;74.23;95195.78;5079831;28;20231;-74
2023/01/12 07:33:11;;;;;;;7.13;6.53;;;;;;;3.84;74.19;95194.97;5080101;28;20196;-73
2023/01/12 07:35:39;;;;;;;7.43;6.82;;;;;;;3.86;74.13;95194.69;5079926;28;20212;-73
2023/01/12 07:38:09;;;;;;;6.72;6.10;;;;;;;3.86;74.00;95187.28;5079903;28;20189;-74
2023/01/12 07:40:37;;;;;;;7.43;6.70;;;;;;;3.87;74.03;95188.09;5079696;28;20544;-73
2023/01/12 07:43:06;;;;;;;6.60;6.00;;;;;;;3.89;74.20;95193.25;5079993;28;20195;-73
2023/01/12 07:45:34;;;;;;;6.57;5.75;;;;;;;3.88;73.58;95186.97;5097243;28;20203;-73
2023/01/12 07:48:01;;;;;;;6.43;5.93;;;;;;;3.95;74.13;95192.00;5079556;28;20238;-73
2023/01/12 07:50:30;;;;;;;6.90;6.30;;;;;;;3.98;73.95;95185.94;5079200;28;20216;-74
2023/01/12 07:53:01;;;;;;;7.20;6.60;;;;;;;4.03;73.40;95174.91;5079254;28;20196;-74
2023/01/12 07:55:31;;;;;;;6.78;6.20;;;;;;;4.05;72.92;95186.31;5096921;28;20289;-73
2023/01/12 07:58:01;;;;;;;6.60;6.03;;;;;;;4.10;73.24;95184.28;5079552;28;20211;-73
2023/01/12 08:00:30;;;;;;;7.32;6.53;;;;;;;4.13;73.23;95180.13;5078994;28;20623;-73
2023/01/12 08:03:04;;;;;;;5.70;5.20;;;;;;;4.15;72.87;95188.81;5079284;28;20204;-73
2023/01/12 08:05:31;;;;;;;5.97;5.47;;;;;;;4.13;72.79;95190.25;5079365;28;20203;-74
2023/01/12 08:07:59;;;;;;;5.78;5.28;;;;;;;4.10;72.88;95194.38;5079316;28;20204;-74
2023/01/12 08:10:27;;;;;;;6.28;5.75;;;;;;;4.15;73.34;95193.47;5096737;28;20212;-73
2023/01/12 08:12:57;;;;;;;5.68;5.18;;;;;;;4.22;72.87;95202.03;5079226;28;20200;-74
2023/01/12 08:15:27;;;;;;;6.30;5.78;;;;;;;4.26;73.24;95194.84;5097231;28;20204;-73
2023/01/12 08:17:58;;;;;;;6.03;5.50;;;;;;;4.31;72.89;95192.78;5078890;28;20201;-74
2023/01/12 08:20:29;;;;;;;5.32;4.93;;;;;;;4.37;72.58;95192.69;5096641;28;20601;-73
2023/01/12 08:22:59;;;;;;;6.03;5.38;;;;;;;4.44;72.45;95187.59;5078836;28;20261;-73
2023/01/12 08:25:29;;;;;;;6.07;5.50;;;;;;;4.43;72.09;95191.41;5096749;28;20216;-74
2023/01/12 08:28:01;;;;;;;6.03;5.53;;;;;;;4.46;71.58;95190.81;5096679;28;20212;-73
2023/01/12 08:30:29;;;;;;;4.70;4.35;;;;;;;4.49;72.06;95187.44;5078411;28;20223;-73
2023/01/12 08:32:58;;;;;;;4.47;4.07;;;;;;;4.50;71.65;95189.88;5078173;28;20204;-73
2023/01/12 08:35:28;;;;;;;3.65;3.42;;;;;;;4.47;71.36;95185.03;5078477;28;20215;-74
2023/01/12 08:37:59;;;;;;;3.38;3.17;;;;;;;4.49;71.08;95182.00;5078193;28;20291;-73
2023/01/12 08:41:31;;;;;;;4.13;3.72;;;;;;;4.49;71.01;95184.72;5069965;28;20208;-75
2023/01/12 08:44:00;;;;;;;3.40;3.10;;;;;;;4.49;71.22;95182.00;5078316;28;20541;-74
2023/01/12 08:46:08;;;;;;;3.50;3.17;;;;;;;4.43;71.21;95188.69;5078639;28;20619;-73
2023/01/12 08:48:35;;;;;;;3.63;3.35;;;;;;;4.45;71.43;95186.47;5078582;28;20207;-74
2023/01/12 08:51:05;;;;;;;3.55;3.25;;;;;;;4.43;70.87;95186.78;5095969;28;20212;-73
2023/01/12 08:53:35;;;;;;;3.30;3.10;;;;;;;4.43;71.44;95183.22;5077925;28;20200;-73
2023/01/12 08:56:05;;;;;;;2.90;2.70;;;;;;;4.38;70.85;95180.63;5077929;28;20239;-73
2023/01/12 08:58:37;;;;;;;3.63;3.03;;;;;;;4.43;71.14;95189.53;5078124;28;20211;-74
2023/01/12 09:01:09;;;;;;;3.60;3.30;;;;;;;4.43;70.90;95188.69;5078348;28;20200;-73
2023/01/12 09:03:37;;;;;;;3.80;3.50;;;;;;;4.34;70.88;95194.91;5078467;28;20197;-73
2023/01/12 09:06:13;;;;;;;3.35;3.05;;;;;;;4.36;70.94;95194.59;5078387;28;20207;-73
2023/01/12 09:08:40;;;;;;;3.10;2.90;;;;;;;4.41;71.11;95190.94;5077787;28;20200;-73
2023/01/12 09:11:11;;;;;;;3.00;2.70;;;;;;;4.33;70.69;95193.28;5078359;28;20568;-73
2023/01/12 09:13:44;;;;;;;3.67;3.38;;;;;;;4.43;71.05;95185.97;5077878;28;20200;-73
2023/01/12 09:16:14;;;;;;;3.60;3.30;;;;;;;4.52;71.17;95189.56;5077502;28;20644;-73
2023/01/12 09:18:44;;;;;;;4.75;4.30;;;;;;;4.56;71.06;95185.88;5077578;28;20214;-73
2023/01/12 09:21:14;;;;;;;3.78;3.47;;;;;;;4.43;71.10;95185.97;5077422;28;20200;-73
2023/01/12 09:23:42;;;;;;;3.97;3.67;;;;;;;4.50;71.14;95183.59;5077703;28;20210;-74
2023/01/12 09:26:12;;;;;;;3.72;3.42;;;;;;;4.54;70.61;95190.88;5077742;28;20192;-73
2023/01/12 09:28:41;;;;;;;3.65;3.35;;;;;;;4.60;70.46;95194.28;5077412;28;20219;-74
2023/01/12 09:31:10;;;;;;;4.07;3.72;;;;;;;4.69;70.45;95189.69;5077431;28;20251;-73
2023/01/12 09:33:39;;;;;;;3.92;3.63;;;;;;;4.71;69.46;95187.41;5077631;28;20624;-73
2023/01/12 09:36:09;;;;;;;3.58;3.28;;;;;;;4.74;69.73;95192.28;5077561;28;20207;-73
2023/01/12 09:38:39;;;;;;;3.03;2.40;;;;;;;4.64;68.90;95192.53;5077678;28;20269;-73
2023/01/12 09:41:11;;;;;;;3.20;2.97;;;;;;;4.68;69.69;95181.78;5077749;28;20204;-73
2023/01/12 09:49:17;;;;;;;4.07;3.55;;;;;;;4.97;67.97;95176.63;5077194;28;20204;-74
2023/01/12 09:51:51;;;;;;;3.42;3.13;;;;;;;4.98;67.59;95178.25;5077690;28;20217;-74
2023/01/12 09:54:18;;;;;;;3.50;3.20;;;;;;;5.01;67.96;95180.38;5076889;28;20201;-74
2023/01/12 09:56:51;;;;;;;3.30;3.10;;;;;;;5.03;67.77;95171.84;5077682;28;20216;-73
2023/01/12 09:59:32;;;;;;;3.60;3.30;;;;;;;4.94;67.67;95168.25;5077126;28;20260;-73
2023/01/12 10:02:00;;;;;;;3.65;3.35;;;;;;;5.11;67.95;95170.25;5077175;28;20192;-74
2023/01/12 10:04:28;;;;;;;4.20;3.88;;;;;;;5.31;67.68;95175.97;5077134;28;20196;-74
2023/01/12 10:06:56;;;;;;;3.88;3.58;;;;;;;5.42;66.73;95178.44;5077665;28;20635;-74
2023/01/12 10:09:23;;;;;;;3.97;3.67;;;;;;;5.44;66.01;95182.44;5077366;28;20212;-74
2023/01/12 10:11:57;;;;;;;3.92;3.63;;;;;;;5.48;66.21;95174.41;5077446;28;20204;-74
2023/01/12 10:14:50;;;;;;;3.78;3.38;;;;;;;5.50;65.68;95181.16;5077174;28;20207;-73
2023/01/12 10:17:29;;;;;;;3.30;3.00;;;;;;;5.36;65.41;95176.94;5077237;28;20205;-74
2023/01/12 10:20:03;;;;;;;2.78;2.58;;;;;;;5.35;66.33;95180.81;5077800;28;20200;-73
2023/01/12 10:22:41;;;;;;;2.95;2.75;;;;;;;5.23;65.94;95175.94;5078002;28;20203;-73
2023/01/12 10:25:23;;;;;;;2.33;2.17;;;;;;;5.20;66.03;95176.59;5078041;28;20208;-73
2023/01/12 10:27:54;;;;;;;2.72;2.53;;;;;;;5.18;66.17;95173.34;5077725;28;20270;-74
2023/01/12 10:30:27;;;;;;;2.72;2.53;;;;;;;5.10;66.42;95176.84;5077323;28;20223;-73
2023/01/12 10:32:55;;;;;;;3.45;3.15;;;;;;;5.02;66.68;95172.97;5078073;28;20219;-74
2023/01/12 10:35:27;;;;;;;3.63;3.33;;;;;;;5.01;66.47;95174.06;5078391;28;20215;-73
2023/01/12 10:37:56;;;;;;;3.00;2.80;;;;;;;5.08;67.08;95182.63;5095315;28;20254;-73
2023/01/12 10:40:30;;;;;;;3.67;3.38;;;;;;;5.06;66.76;95173.94;5077990;28;20201;-73
2023/01/12 10:43:22;;;;;;;3.50;3.20;;;;;;;5.11;66.75;95173.00;5078456;28;20211;-73
2023/01/12 10:46:10;;;;;;;3.80;3.50;;;;;;;5.04;66.80;95168.78;5078379;28;20192;-73
2023/01/12 10:48:39;;;;;;;3.25;3.05;;;;;;;5.04;67.09;95157.03;5078113;28;20212;-73
2023/01/12 10:51:08;;;;;;;3.58;3.22;;;;;;;5.10;67.02;95163.19;5078196;28;20323;-74
2023/01/12 10:53:41;;;;;;;3.50;3.30;;;;;;;5.12;67.04;95158.19;5078729;28;20196;-73
2023/01/12 10:56:14;;;;;;;3.30;3.10;;;;;;;5.08;67.06;95163.47;5079900;28;20242;-73
2023/01/12 10:58:43;;;;;;;3.42;3.20;;;;;;;5.12;66.86;95148.09;5081777;28;20215;-73
2023/01/12 11:01:15;;;;;;;3.22;3.03;;;;;;;5.04;66.85;95152.38;5082118;28;20204;-72
2023/01/12 11:03:42;;;;;;;3.83;3.53;;;;;;;5.04;66.93;95149.63;5082485;28;20196;-73
2023/01/12 11:06:45;;;;;;;3.40;3.20;;;;;;;5.04;66.77;95152.38;5081440;28;20207;-73
2023/01/12 11:09:26;;;;;;;3.38;3.17;;;;;;;5.01;66.72;95149.47;5098276;28;20219;-73
2023/01/12 11:11:57;;;;;;;3.58;3.38;;;;;;;4.98;67.46;95144.66;5081664;28;20236;-73
2023/01/12 11:14:27;;;;;;;3.25;3.05;;;;;;;4.93;67.62;95139.31;5081434;28;20210;-73
2023/01/12 11:17:14;;;;;;;3.17;2.97;;;;;;;4.93;67.87;95148.31;5082249;28;20208;-73
2023/01/12 11:19:45;;;;;;;3.42;3.22;;;;;;;4.94;67.20;95146.38;5081994;28;20501;-73
2023/01/12 11:22:16;;;;;;;3.70;3.40;;;;;;;5.02;67.24;95140.16;5081618;28;20193;-73
2023/01/12 11:24:48;;;;;;;3.58;3.30;;;;;;;5.01;67.75;95141.25;5098683;28;20190;-73
2023/01/12 11:27:21;;;;;;;3.20;3.00;;;;;;;5.12;66.88;95145.34;5080924;28;20216;-73
2023/01/12 11:29:58;;;;;;;2.75;2.55;;;;;;;5.13;66.31;95136.03;5080685;28;20212;-73
2023/01/12 11:32:34;;;;;;;2.85;2.65;;;;;;;5.17;66.20;95139.72;5081274;28;20208;-73
2023/01/12 11:35:14;;;;;;;3.17;2.95;;;;;;;5.14;66.28;95132.16;5081000;28;20207;-74
2023/01/12 11:37:42;;;;;;;4.07;3.78;;;;;;;5.22;66.75;95128.63;5081825;28;20196;-73
2023/01/12 11:40:23;;;;;;;3.60;3.30;;;;;;;5.30;66.26;95136.06;5098692;28;20612;-74
2023/01/12 11:45:45;;;;;;;3.55;3.25;;;;;;;5.45;66.03;95128.56;5080907;28;20196;-74
2023/01/12 11:48:21;;;;;;;3.20;3.00;;;;;;;5.45;65.75;95128.56;5080714;28;20204;-73
2023/01/12 11:50:50;;;;;;;3.53;3.22;;;;;;;5.44;65.97;95127.72;5080841;28;20224;-74
2023/01/12 11:53:22;;;;;;;3.60;3.30;;;;;;;5.49;65.82;95118.59;5079506;28;20211;-73
2023/01/12 11:56:20;;;;;;;3.30;3.10;;;;;;;5.49;65.25;95118.59;5079042;28;20236;-74
2023/01/12 11:58:54;;;;;;;3.85;3.65;;;;;;;5.49;66.02;95118.59;5052456;28;20212;-74
2023/01/12 12:01:30;;;;;;;4.20;3.90;;;;;;;5.54;65.79;95118.41;5079447;28;20208;-74
2023/01/12 12:04:02;;;;;;;3.75;3.47;;;;;;;5.53;65.54;95116.81;5079410;28;20200;-74
2023/01/12 12:06:55;;;;;;;3.72;3.42;;;;;;;5.44;65.92;95115.97;5078896;28;20211;-74
2023/01/12 12:09:40;;;;;;;3.22;3.03;;;;;;;5.41;65.49;95117.44;5079757;28;20238;-74
2023/01/12 12:12:13;;;;;;;3.00;2.80;;;;;;;5.44;66.13;95110.50;5078680;28;20232;-74
2023/01/12 12:14:53;;;;;;;3.13;2.92;;;;;;;5.49;65.90;95107.63;5078716;28;20204;-73
2023/01/12 12:17:23;;;;;;;3.83;3.47;;;;;;;5.54;66.19;95111.00;5078785;28;20200;-73
2023/01/12 12:20:06;;;;;;;3.80;3.50;;;;;;;5.50;66.33;95112.78;5078973;28;20192;-73
2023/01/12 12:22:44;;;;;;;3.33;3.13;;;;;;;5.51;66.11;95111.66;5078663;28;20206;-74
2023/01/12 12:25:24;;;;;;;3.58;3.33;;;;;;;5.48;66.08;95115.03;5078801;28;20211;-73
2023/01/12 12:28:26;;;;;;;3.90;3.70;;;;;;;5.45;66.71;95109.41;5078822;28;20204;-74